sensor_id;sensor_type;location;lat;lon;timestamp;temperature;humidity
44894;DHT22;30625;52.206;21.030;2024-01-07T00:02:19;-3.40;99.90
44894;DHT22;30625;52.206;21.030;2024-01-07T00:04:45;-3.40;99.90
44894;DHT22;30625;52.206;21.030;2024-01-07T00:07:11;-3.40;99.90
44894;DHT22;30625;52.206;21.030;2024-01-07T00:09:39;-3.50;99.90
44894;DHT22;30625;52.206;21.030;2024-01-07T00:12:05;-3.50;99.90
44894;DHT22;30625;52.206;21.030;2024-01-07T00:14:33;-3.40;99.90
44894;DHT22;30625;52.206;21.030;2024-01-07T00:16:59;-3.40;99.90
44894;DHT22;30625;52.206;21.030;2024-01-07T00:19:27;-3.40;99.90
44894;DHT22;30625;52.206;21.030;2024-01-07T00:21:52;-3.40;99.90
44894;DHT22;30625;52.206;21.030;2024-01-07T00:24:19;-3.40;99.90
44894;DHT22;30625;52.206;21.030;2024-01-07T00:26:45;-3.30;99.90
44894;DHT22;30625;52.206;21.030;2024-01-07T00:29:11;-3.30;99.90
44894;DHT22;30625;52.206;21.030;2024-01-07T00:31:37;-3.40;99.90
44894;DHT22;30625;52.206;21.030;2024-01-07T00:34:02;-3.30;99.90
44894;DHT22;30625;52.206;21.030;2024-01-07T00:36:28;-3.30;99.90
44894;DHT22;30625;52.206;21.030;2024-01-07T00:38:53;-3.30;99.90
44894;DHT22;30625;52.206;21.030;2024-01-07T00:41:19;-3.30;99.90
44894;DHT22;30625;52.206;21.030;2024-01-07T00:43:46;-3.30;99.90
44894;DHT22;30625;52.206;21.030;2024-01-07T00:46:12;-3.40;99.90
44894;DHT22;30625;52.206;21.030;2024-01-07T00:48:37;-3.40;99.90
44894;DHT22;30625;52.206;21.030;2024-01-07T00:51:04;-3.50;99.90
44894;DHT22;30625;52.206;21.030;2024-01-07T00:53:30;-3.50;99.90
44894;DHT22;30625;52.206;21.030;2024-01-07T00:55:55;-3.60;99.90
44894;DHT22;30625;52.206;21.030;2024-01-07T00:58:21;-3.70;99.90
44894;DHT22;30625;52.206;21.030;2024-01-07T01:00:46;-3.70;99.90
44894;DHT22;30625;52.206;21.030;2024-01-07T01:03:12;-3.70;99.90
44894;DHT22;30625;52.206;21.030;2024-01-07T01:05:39;-3.70;99.90
44894;DHT22;30625;52.206;21.030;2024-01-07T01:08:07;-3.70;99.90
44894;DHT22;30625;52.206;21.030;2024-01-07T01:10:32;-3.70;99.90
44894;DHT22;30625;52.206;21.030;2024-01-07T01:12:58;-3.70;99.90
44894;DHT22;30625;52.206;21.030;2024-01-07T01:15:24;-3.70;99.90
44894;DHT22;30625;52.206;21.030;2024-01-07T01:17:49;-3.70;99.90
44894;DHT22;30625;52.206;21.030;2024-01-07T01:20:15;-3.70;99.90
44894;DHT22;30625;52.206;21.030;2024-01-07T01:22:42;-3.60;99.90
44894;DHT22;30625;52.206;21.030;2024-01-07T01:25:08;-3.60;99.90
44894;DHT22;30625;52.206;21.030;2024-01-07T01:27:34;-3.60;99.90
44894;DHT22;30625;52.206;21.030;2024-01-07T01:30:00;-3.50;99.90
44894;DHT22;30625;52.206;21.030;2024-01-07T01:32:28;-3.50;99.90
44894;DHT22;30625;52.206;21.030;2024-01-07T01:34:54;-3.60;99.90
44894;DHT22;30625;52.206;21.030;2024-01-07T01:37:20;-3.60;99.90
44894;DHT22;30625;52.206;21.030;2024-01-07T01:39:45;-3.60;99.90
44894;DHT22;30625;52.206;21.030;2024-01-07T01:42:11;-3.60;99.90
44894;DHT22;30625;52.206;21.030;2024-01-07T01:44:37;-3.60;99.90
44894;DHT22;30625;52.206;21.030;2024-01-07T01:47:02;-3.70;99.90
44894;DHT22;30625;52.206;21.030;2024-01-07T01:49:28;-3.60;99.90
44894;DHT22;30625;52.206;21.030;2024-01-07T01:51:55;-3.60;99.90
44894;DHT22;30625;52.206;21.030;2024-01-07T01:54:21;-3.50;99.90
44894;DHT22;30625;52.206;21.030;2024-01-07T01:56:48;-3.50;99.90
44894;DHT22;30625;52.206;21.030;2024-01-07T01:59:14;-3.50;99.90
44894;DHT22;30625;52.206;21.030;2024-01-07T02:01:40;-3.50;99.90
44894;DHT22;30625;52.206;21.030;2024-01-07T02:04:07;-3.40;99.90
44894;DHT22;30625;52.206;21.030;2024-01-07T02:06:33;-3.40;99.90
44894;DHT22;30625;52.206;21.030;2024-01-07T02:08:59;-3.50;99.90
44894;DHT22;30625;52.206;21.030;2024-01-07T02:11:30;-3.40;99.90
44894;DHT22;30625;52.206;21.030;2024-01-07T02:13:55;-3.40;99.90
44894;DHT22;30625;52.206;21.030;2024-01-07T02:16:21;-3.30;99.90
44894;DHT22;30625;52.206;21.030;2024-01-07T02:18:48;-3.30;99.90
44894;DHT22;30625;52.206;21.030;2024-01-07T02:21:14;-3.40;99.90
44894;DHT22;30625;52.206;21.030;2024-01-07T02:23:40;-3.40;99.90
44894;DHT22;30625;52.206;21.030;2024-01-07T02:26:06;-3.40;99.90
44894;DHT22;30625;52.206;21.030;2024-01-07T02:28:32;-3.40;99.90
44894;DHT22;30625;52.206;21.030;2024-01-07T02:30:58;-3.40;99.90
44894;DHT22;30625;52.206;21.030;2024-01-07T02:33:24;-3.40;99.90
44894;DHT22;30625;52.206;21.030;2024-01-07T02:35:51;-3.40;99.90
44894;DHT22;30625;52.206;21.030;2024-01-07T02:38:20;-3.40;99.90
44894;DHT22;30625;52.206;21.030;2024-01-07T02:40:45;-3.30;99.90
44894;DHT22;30625;52.206;21.030;2024-01-07T02:43:12;-3.40;99.90
44894;DHT22;30625;52.206;21.030;2024-01-07T02:45:38;-3.50;99.90
44894;DHT22;30625;52.206;21.030;2024-01-07T02:48:04;-3.50;99.90
44894;DHT22;30625;52.206;21.030;2024-01-07T02:50:32;-3.50;99.90
44894;DHT22;30625;52.206;21.030;2024-01-07T02:52:58;-3.50;99.90
44894;DHT22;30625;52.206;21.030;2024-01-07T02:55:24;-3.50;99.90
44894;DHT22;30625;52.206;21.030;2024-01-07T02:57:50;-3.60;99.90
44894;DHT22;30625;52.206;21.030;2024-01-07T03:00:15;-3.70;99.90
44894;DHT22;30625;52.206;21.030;2024-01-07T03:02:41;-3.70;99.90
44894;DHT22;30625;52.206;21.030;2024-01-07T03:05:08;-3.80;99.90
44894;DHT22;30625;52.206;21.030;2024-01-07T03:07:33;-3.70;99.90
44894;DHT22;30625;52.206;21.030;2024-01-07T03:09:59;-3.80;99.90
44894;DHT22;30625;52.206;21.030;2024-01-07T03:12:24;-3.80;99.90
44894;DHT22;30625;52.206;21.030;2024-01-07T03:14:50;-3.80;99.90
44894;DHT22;30625;52.206;21.030;2024-01-07T03:17:15;-3.90;99.90
44894;DHT22;30625;52.206;21.030;2024-01-07T03:19:42;-3.90;99.90
44894;DHT22;30625;52.206;21.030;2024-01-07T03:22:08;-3.90;99.90
44894;DHT22;30625;52.206;21.030;2024-01-07T03:24:34;-3.90;99.90
44894;DHT22;30625;52.206;21.030;2024-01-07T03:26:59;-4.00;99.90
44894;DHT22;30625;52.206;21.030;2024-01-07T03:29:25;-3.90;99.90
44894;DHT22;30625;52.206;21.030;2024-01-07T03:31:50;-3.90;99.90
44894;DHT22;30625;52.206;21.030;2024-01-07T03:34:18;-4.00;99.90
44894;DHT22;30625;52.206;21.030;2024-01-07T03:36:44;-3.90;99.90
44894;DHT22;30625;52.206;21.030;2024-01-07T03:39:09;-4.00;99.90
44894;DHT22;30625;52.206;21.030;2024-01-07T03:41:35;-4.00;99.90
44894;DHT22;30625;52.206;21.030;2024-01-07T03:44:01;-4.00;99.90
44894;DHT22;30625;52.206;21.030;2024-01-07T03:46:27;-4.00;99.90
44894;DHT22;30625;52.206;21.030;2024-01-07T03:48:54;-4.10;99.90
44894;DHT22;30625;52.206;21.030;2024-01-07T03:51:20;-4.10;99.90
44894;DHT22;30625;52.206;21.030;2024-01-07T03:53:46;-4.10;99.90
44894;DHT22;30625;52.206;21.030;2024-01-07T03:56:12;-4.00;99.90
44894;DHT22;30625;52.206;21.030;2024-01-07T03:58:38;-4.10;99.90
44894;DHT22;30625;52.206;21.030;2024-01-07T04:01:03;-4.10;99.90
44894;DHT22;30625;52.206;21.030;2024-01-07T04:03:29;-4.20;99.90
44894;DHT22;30625;52.206;21.030;2024-01-07T04:05:55;-4.20;99.90
44894;DHT22;30625;52.206;21.030;2024-01-07T04:08:20;-4.10;99.90
44894;DHT22;30625;52.206;21.030;2024-01-07T04:10:46;-4.10;99.90
44894;DHT22;30625;52.206;21.030;2024-01-07T04:13:11;-4.10;99.90
44894;DHT22;30625;52.206;21.030;2024-01-07T04:15:37;-4.10;99.90
44894;DHT22;30625;52.206;21.030;2024-01-07T04:18:03;-4.10;99.90
44894;DHT22;30625;52.206;21.030;2024-01-07T04:20:30;-4.20;99.90
44894;DHT22;30625;52.206;21.030;2024-01-07T04:22:56;-4.20;99.90
44894;DHT22;30625;52.206;21.030;2024-01-07T04:25:25;-4.30;99.90
44894;DHT22;30625;52.206;21.030;2024-01-07T04:27:53;-4.30;99.90
44894;DHT22;30625;52.206;21.030;2024-01-07T04:30:18;-4.30;99.90
44894;DHT22;30625;52.206;21.030;2024-01-07T04:32:44;-4.30;99.90
44894;DHT22;30625;52.206;21.030;2024-01-07T04:35:10;-4.30;99.90
44894;DHT22;30625;52.206;21.030;2024-01-07T04:37:36;-4.30;99.90
44894;DHT22;30625;52.206;21.030;2024-01-07T04:40:02;-4.30;99.90
44894;DHT22;30625;52.206;21.030;2024-01-07T04:42:31;-4.30;99.90
44894;DHT22;30625;52.206;21.030;2024-01-07T04:44:57;-4.30;99.90
44894;DHT22;30625;52.206;21.030;2024-01-07T04:47:30;-4.40;99.90
44894;DHT22;30625;52.206;21.030;2024-01-07T04:49:56;-4.40;99.90
44894;DHT22;30625;52.206;21.030;2024-01-07T04:52:22;-4.40;99.90
44894;DHT22;30625;52.206;21.030;2024-01-07T04:54:53;-4.30;99.90
44894;DHT22;30625;52.206;21.030;2024-01-07T04:57:20;-4.40;99.90
44894;DHT22;30625;52.206;21.030;2024-01-07T04:59:50;-4.40;99.90
44894;DHT22;30625;52.206;21.030;2024-01-07T05:02:16;-4.40;99.90
44894;DHT22;30625;52.206;21.030;2024-01-07T05:04:43;-4.40;99.90
44894;DHT22;30625;52.206;21.030;2024-01-07T05:07:09;-4.50;99.90
44894;DHT22;30625;52.206;21.030;2024-01-07T05:09:35;-4.40;99.90
44894;DHT22;30625;52.206;21.030;2024-01-07T05:12:03;-4.40;99.90
44894;DHT22;30625;52.206;21.030;2024-01-07T05:14:30;-4.40;99.90
44894;DHT22;30625;52.206;21.030;2024-01-07T05:16:56;-4.30;99.90
44894;DHT22;30625;52.206;21.030;2024-01-07T05:19:22;-4.20;99.90
44894;DHT22;30625;52.206;21.030;2024-01-07T05:21:48;-4.40;99.90
44894;DHT22;30625;52.206;21.030;2024-01-07T05:24:13;-4.40;99.90
44894;DHT22;30625;52.206;21.030;2024-01-07T05:26:43;-4.50;99.90
44894;DHT22;30625;52.206;21.030;2024-01-07T05:29:09;-4.50;99.90
44894;DHT22;30625;52.206;21.030;2024-01-07T05:31:34;-4.50;99.90
44894;DHT22;30625;52.206;21.030;2024-01-07T05:34:00;-4.50;99.90
44894;DHT22;30625;52.206;21.030;2024-01-07T05:36:26;-4.50;99.90
44894;DHT22;30625;52.206;21.030;2024-01-07T05:38:51;-4.50;99.90
44894;DHT22;30625;52.206;21.030;2024-01-07T05:41:17;-4.50;99.90
44894;DHT22;30625;52.206;21.030;2024-01-07T05:43:42;-4.50;99.90
44894;DHT22;30625;52.206;21.030;2024-01-07T05:46:08;-4.50;99.90
44894;DHT22;30625;52.206;21.030;2024-01-07T05:48:47;-4.50;99.90
44894;DHT22;30625;52.206;21.030;2024-01-07T05:51:13;-4.60;99.90
44894;DHT22;30625;52.206;21.030;2024-01-07T05:53:40;-4.60;99.90
44894;DHT22;30625;52.206;21.030;2024-01-07T05:56:06;-4.60;99.90
44894;DHT22;30625;52.206;21.030;2024-01-07T05:58:32;-4.50;99.90
44894;DHT22;30625;52.206;21.030;2024-01-07T06:00:58;-4.50;99.90
44894;DHT22;30625;52.206;21.030;2024-01-07T06:03:23;-4.50;99.90
44894;DHT22;30625;52.206;21.030;2024-01-07T06:05:49;-4.60;99.90
44894;DHT22;30625;52.206;21.030;2024-01-07T06:08:15;-4.60;99.90
44894;DHT22;30625;52.206;21.030;2024-01-07T06:10:40;-4.60;99.90
44894;DHT22;30625;52.206;21.030;2024-01-07T06:13:06;-4.60;99.90
44894;DHT22;30625;52.206;21.030;2024-01-07T06:15:32;-4.40;99.90
44894;DHT22;30625;52.206;21.030;2024-01-07T06:17:57;-4.60;99.90
44894;DHT22;30625;52.206;21.030;2024-01-07T06:20:23;-4.60;99.90
44894;DHT22;30625;52.206;21.030;2024-01-07T06:22:49;-4.60;99.90
44894;DHT22;30625;52.206;21.030;2024-01-07T06:25:16;-4.60;99.90
44894;DHT22;30625;52.206;21.030;2024-01-07T06:27:41;-4.60;99.90
44894;DHT22;30625;52.206;21.030;2024-01-07T06:30:07;-4.60;99.90
44894;DHT22;30625;52.206;21.030;2024-01-07T06:32:34;-4.60;99.90
44894;DHT22;30625;52.206;21.030;2024-01-07T06:34:59;-4.60;99.90
44894;DHT22;30625;52.206;21.030;2024-01-07T06:37:26;-4.50;99.90
44894;DHT22;30625;52.206;21.030;2024-01-07T06:39:54;-4.60;99.90
44894;DHT22;30625;52.206;21.030;2024-01-07T06:42:20;-4.60;99.90
44894;DHT22;30625;52.206;21.030;2024-01-07T06:44:46;-4.70;99.90
44894;DHT22;30625;52.206;21.030;2024-01-07T06:47:11;-4.70;99.90
44894;DHT22;30625;52.206;21.030;2024-01-07T06:49:37;-4.70;99.90
44894;DHT22;30625;52.206;21.030;2024-01-07T06:52:04;-4.70;99.90
44894;DHT22;30625;52.206;21.030;2024-01-07T06:54:30;-4.70;99.90
44894;DHT22;30625;52.206;21.030;2024-01-07T06:56:56;-4.60;99.90
44894;DHT22;30625;52.206;21.030;2024-01-07T06:59:21;-4.60;99.90
44894;DHT22;30625;52.206;21.030;2024-01-07T07:01:47;-4.60;99.90
44894;DHT22;30625;52.206;21.030;2024-01-07T07:04:14;-4.60;99.90
44894;DHT22;30625;52.206;21.030;2024-01-07T07:06:39;-4.60;99.90
44894;DHT22;30625;52.206;21.030;2024-01-07T07:09:05;-4.50;99.90
44894;DHT22;30625;52.206;21.030;2024-01-07T07:11:32;-4.60;99.90
44894;DHT22;30625;52.206;21.030;2024-01-07T07:13:57;-4.50;99.90
44894;DHT22;30625;52.206;21.030;2024-01-07T07:16:23;-4.50;99.90
44894;DHT22;30625;52.206;21.030;2024-01-07T07:18:49;-4.50;99.90
44894;DHT22;30625;52.206;21.030;2024-01-07T07:21:14;-4.60;99.90
44894;DHT22;30625;52.206;21.030;2024-01-07T07:23:41;-4.60;99.90
44894;DHT22;30625;52.206;21.030;2024-01-07T07:26:07;-4.60;99.90
44894;DHT22;30625;52.206;21.030;2024-01-07T07:28:33;-4.50;99.90
44894;DHT22;30625;52.206;21.030;2024-01-07T07:30:59;-4.50;99.90
44894;DHT22;30625;52.206;21.030;2024-01-07T07:33:24;-4.50;99.90
44894;DHT22;30625;52.206;21.030;2024-01-07T07:35:50;-4.40;99.90
44894;DHT22;30625;52.206;21.030;2024-01-07T07:38:16;-4.40;99.90
44894;DHT22;30625;52.206;21.030;2024-01-07T07:40:42;-4.30;99.90
44894;DHT22;30625;52.206;21.030;2024-01-07T07:43:09;-4.30;99.90
44894;DHT22;30625;52.206;21.030;2024-01-07T07:45:35;-4.40;99.90
44894;DHT22;30625;52.206;21.030;2024-01-07T07:48:00;-4.40;99.90
44894;DHT22;30625;52.206;21.030;2024-01-07T07:50:26;-4.40;99.90
44894;DHT22;30625;52.206;21.030;2024-01-07T07:52:51;-4.30;99.90
44894;DHT22;30625;52.206;21.030;2024-01-07T07:55:18;-4.30;99.90
44894;DHT22;30625;52.206;21.030;2024-01-07T07:57:44;-4.30;99.90
44894;DHT22;30625;52.206;21.030;2024-01-07T08:00:13;-4.30;99.90
44894;DHT22;30625;52.206;21.030;2024-01-07T08:02:39;-4.20;99.90
44894;DHT22;30625;52.206;21.030;2024-01-07T08:05:06;-4.20;99.90
44894;DHT22;30625;52.206;21.030;2024-01-07T08:07:32;-4.20;99.90
44894;DHT22;30625;52.206;21.030;2024-01-07T08:09:57;-4.20;99.90
44894;DHT22;30625;52.206;21.030;2024-01-07T08:12:23;-4.20;99.90
44894;DHT22;30625;52.206;21.030;2024-01-07T08:14:49;-4.10;99.90
44894;DHT22;30625;52.206;21.030;2024-01-07T08:17:15;-4.20;99.90
44894;DHT22;30625;52.206;21.030;2024-01-07T08:19:41;-4.20;99.90
44894;DHT22;30625;52.206;21.030;2024-01-07T08:22:06;-4.20;99.90
44894;DHT22;30625;52.206;21.030;2024-01-07T08:24:33;-4.20;99.90
44894;DHT22;30625;52.206;21.030;2024-01-07T08:26:59;-4.20;99.90
44894;DHT22;30625;52.206;21.030;2024-01-07T08:29:25;-4.20;99.90
44894;DHT22;30625;52.206;21.030;2024-01-07T08:31:50;-4.10;99.90
44894;DHT22;30625;52.206;21.030;2024-01-07T08:34:18;-4.20;99.90
44894;DHT22;30625;52.206;21.030;2024-01-07T08:36:48;-4.10;99.90
44894;DHT22;30625;52.206;21.030;2024-01-07T08:39:14;-4.10;99.90
44894;DHT22;30625;52.206;21.030;2024-01-07T08:41:40;-4.10;99.90
44894;DHT22;30625;52.206;21.030;2024-01-07T08:44:06;-4.10;99.90
44894;DHT22;30625;52.206;21.030;2024-01-07T08:46:34;-4.10;99.90
44894;DHT22;30625;52.206;21.030;2024-01-07T08:48:59;-4.10;99.90
44894;DHT22;30625;52.206;21.030;2024-01-07T08:51:25;-4.00;99.90
44894;DHT22;30625;52.206;21.030;2024-01-07T08:53:50;-4.00;99.90
44894;DHT22;30625;52.206;21.030;2024-01-07T08:56:19;-4.00;99.90
44894;DHT22;30625;52.206;21.030;2024-01-07T08:58:44;-4.00;99.90
44894;DHT22;30625;52.206;21.030;2024-01-07T09:01:10;-3.90;99.90
44894;DHT22;30625;52.206;21.030;2024-01-07T09:03:40;-3.90;99.90
44894;DHT22;30625;52.206;21.030;2024-01-07T09:06:07;-3.90;99.90
44894;DHT22;30625;52.206;21.030;2024-01-07T09:08:34;-3.90;99.90
44894;DHT22;30625;52.206;21.030;2024-01-07T09:11:04;-3.90;99.90
44894;DHT22;30625;52.206;21.030;2024-01-07T09:13:37;-4.00;99.90
44894;DHT22;30625;52.206;21.030;2024-01-07T09:16:04;-3.90;99.90
44894;DHT22;30625;52.206;21.030;2024-01-07T09:18:32;-3.90;99.90
44894;DHT22;30625;52.206;21.030;2024-01-07T09:20:57;-3.90;99.90
44894;DHT22;30625;52.206;21.030;2024-01-07T09:23:23;-4.00;99.90
44894;DHT22;30625;52.206;21.030;2024-01-07T09:25:54;-3.90;99.90
44894;DHT22;30625;52.206;21.030;2024-01-07T09:28:24;-4.00;99.90
44894;DHT22;30625;52.206;21.030;2024-01-07T09:30:50;-4.00;99.90
44894;DHT22;30625;52.206;21.030;2024-01-07T09:33:15;-4.00;99.90
44894;DHT22;30625;52.206;21.030;2024-01-07T09:35:42;-3.90;99.90
44894;DHT22;30625;52.206;21.030;2024-01-07T09:38:09;-3.90;99.90
44894;DHT22;30625;52.206;21.030;2024-01-07T09:40:38;-3.90;99.90
44894;DHT22;30625;52.206;21.030;2024-01-07T09:43:05;-3.90;99.90
44894;DHT22;30625;52.206;21.030;2024-01-07T09:45:31;-3.80;99.90
44894;DHT22;30625;52.206;21.030;2024-01-07T09:47:57;-4.00;99.90
44894;DHT22;30625;52.206;21.030;2024-01-07T09:50:27;-3.90;99.90
44894;DHT22;30625;52.206;21.030;2024-01-07T09:52:57;-4.00;99.90
44894;DHT22;30625;52.206;21.030;2024-01-07T09:55:43;-4.00;99.90
44894;DHT22;30625;52.206;21.030;2024-01-07T09:58:12;-4.00;99.90
44894;DHT22;30625;52.206;21.030;2024-01-07T10:00:38;-4.00;99.90
44894;DHT22;30625;52.206;21.030;2024-01-07T10:10:53;-4.00;99.90
44894;DHT22;30625;52.206;21.030;2024-01-07T10:13:20;-4.00;99.90
44894;DHT22;30625;52.206;21.030;2024-01-07T10:18:23;-3.90;99.90
44894;DHT22;30625;52.206;21.030;2024-01-07T10:20:51;-3.80;99.90
44894;DHT22;30625;52.206;21.030;2024-01-07T10:43:57;-3.90;99.90
44894;DHT22;30625;52.206;21.030;2024-01-07T10:46:23;-4.00;99.90
44894;DHT22;30625;52.206;21.030;2024-01-07T10:51:28;-4.00;99.90
44894;DHT22;30625;52.206;21.030;2024-01-07T10:53:56;-4.00;99.90
44894;DHT22;30625;52.206;21.030;2024-01-07T10:56:25;-4.00;99.90
44894;DHT22;30625;52.206;21.030;2024-01-07T10:58:54;-3.90;99.90
44894;DHT22;30625;52.206;21.030;2024-01-07T11:01:20;-3.90;99.90
44894;DHT22;30625;52.206;21.030;2024-01-07T11:07:09;-3.90;99.90
44894;DHT22;30625;52.206;21.030;2024-01-07T11:09:56;-4.00;99.90
44894;DHT22;30625;52.206;21.030;2024-01-07T11:12:25;-4.00;99.90
44894;DHT22;30625;52.206;21.030;2024-01-07T11:14:51;-4.00;99.90
44894;DHT22;30625;52.206;21.030;2024-01-07T11:20:12;-4.10;99.90
44894;DHT22;30625;52.206;21.030;2024-01-07T11:22:37;-4.10;99.90
44894;DHT22;30625;52.206;21.030;2024-01-07T11:25:31;-4.00;99.90
44894;DHT22;30625;52.206;21.030;2024-01-07T11:28:01;-4.00;99.90
44894;DHT22;30625;52.206;21.030;2024-01-07T11:30:27;-4.00;99.90
44894;DHT22;30625;52.206;21.030;2024-01-07T11:32:57;-3.90;99.90
44894;DHT22;30625;52.206;21.030;2024-01-07T11:35:54;-3.90;99.90
44894;DHT22;30625;52.206;21.030;2024-01-07T11:38:22;-3.80;99.90
44894;DHT22;30625;52.206;21.030;2024-01-07T11:40:50;-3.80;99.90
44894;DHT22;30625;52.206;21.030;2024-01-07T11:43:17;-3.70;99.90
44894;DHT22;30625;52.206;21.030;2024-01-07T11:45:42;-3.70;99.90
44894;DHT22;30625;52.206;21.030;2024-01-07T11:48:08;-3.70;99.90
44894;DHT22;30625;52.206;21.030;2024-01-07T11:50:35;-3.80;99.90
44894;DHT22;30625;52.206;21.030;2024-01-07T11:53:01;-3.60;99.90
44894;DHT22;30625;52.206;21.030;2024-01-07T11:55:29;-3.80;99.70
44894;DHT22;30625;52.206;21.030;2024-01-07T11:58:00;-3.80;99.90
44894;DHT22;30625;52.206;21.030;2024-01-07T12:00:26;-3.80;99.90
44894;DHT22;30625;52.206;21.030;2024-01-07T12:02:52;-3.80;99.70
44894;DHT22;30625;52.206;21.030;2024-01-07T12:05:18;-3.70;99.70
44894;DHT22;30625;52.206;21.030;2024-01-07T12:07:44;-3.70;99.90
44894;DHT22;30625;52.206;21.030;2024-01-07T12:10:10;-3.70;99.50
44894;DHT22;30625;52.206;21.030;2024-01-07T12:12:41;-3.80;99.20
44894;DHT22;30625;52.206;21.030;2024-01-07T12:15:08;-3.90;99.10
44894;DHT22;30625;52.206;21.030;2024-01-07T12:17:34;-4.00;99.30
44894;DHT22;30625;52.206;21.030;2024-01-07T12:20:00;-4.00;99.20
44894;DHT22;30625;52.206;21.030;2024-01-07T12:22:30;-4.00;99.60
44894;DHT22;30625;52.206;21.030;2024-01-07T12:25:06;-4.00;98.90
44894;DHT22;30625;52.206;21.030;2024-01-07T12:27:33;-4.10;99.50
44894;DHT22;30625;52.206;21.030;2024-01-07T12:30:02;-4.10;99.30
44894;DHT22;30625;52.206;21.030;2024-01-07T12:32:30;-4.10;98.90
44894;DHT22;30625;52.206;21.030;2024-01-07T12:35:01;-4.10;99.20
44894;DHT22;30625;52.206;21.030;2024-01-07T12:37:27;-4.10;99.20
44894;DHT22;30625;52.206;21.030;2024-01-07T12:39:54;-4.10;99.30
44894;DHT22;30625;52.206;21.030;2024-01-07T12:42:20;-4.10;99.70
44894;DHT22;30625;52.206;21.030;2024-01-07T12:44:50;-4.00;99.30
44894;DHT22;30625;52.206;21.030;2024-01-07T12:47:21;-3.90;99.30
44894;DHT22;30625;52.206;21.030;2024-01-07T12:49:47;-3.80;99.40
44894;DHT22;30625;52.206;21.030;2024-01-07T12:52:16;-3.80;98.70
44894;DHT22;30625;52.206;21.030;2024-01-07T12:54:42;-3.80;98.60
44894;DHT22;30625;52.206;21.030;2024-01-07T12:57:08;-3.90;99.00
44894;DHT22;30625;52.206;21.030;2024-01-07T12:59:35;-4.00;99.40
44894;DHT22;30625;52.206;21.030;2024-01-07T13:02:03;-4.10;99.00
44894;DHT22;30625;52.206;21.030;2024-01-07T13:04:31;-4.10;99.00
44894;DHT22;30625;52.206;21.030;2024-01-07T13:07:04;-4.10;98.80
44894;DHT22;30625;52.206;21.030;2024-01-07T13:09:29;-4.20;98.90
44894;DHT22;30625;52.206;21.030;2024-01-07T13:11:55;-4.10;99.10
44894;DHT22;30625;52.206;21.030;2024-01-07T13:14:21;-4.10;97.90
44894;DHT22;30625;52.206;21.030;2024-01-07T13:16:47;-4.20;99.30
44894;DHT22;30625;52.206;21.030;2024-01-07T13:19:14;-4.20;99.00
44894;DHT22;30625;52.206;21.030;2024-01-07T13:21:40;-4.20;99.20
44894;DHT22;30625;52.206;21.030;2024-01-07T13:24:06;-4.10;98.40
44894;DHT22;30625;52.206;21.030;2024-01-07T13:26:31;-4.30;98.40
44894;DHT22;30625;52.206;21.030;2024-01-07T13:28:57;-4.30;98.70
44894;DHT22;30625;52.206;21.030;2024-01-07T13:31:23;-4.50;98.90
44894;DHT22;30625;52.206;21.030;2024-01-07T13:33:49;-4.50;99.40
44894;DHT22;30625;52.206;21.030;2024-01-07T13:36:14;-4.40;99.30
44894;DHT22;30625;52.206;21.030;2024-01-07T13:38:40;-4.60;99.50
44894;DHT22;30625;52.206;21.030;2024-01-07T13:41:08;-4.60;99.20
44894;DHT22;30625;52.206;21.030;2024-01-07T13:43:34;-4.60;98.80
44894;DHT22;30625;52.206;21.030;2024-01-07T13:46:03;-4.60;98.70
44894;DHT22;30625;52.206;21.030;2024-01-07T13:48:29;-4.60;98.60
44894;DHT22;30625;52.206;21.030;2024-01-07T13:50:55;-4.60;98.60
44894;DHT22;30625;52.206;21.030;2024-01-07T13:53:21;-4.70;99.10
44894;DHT22;30625;52.206;21.030;2024-01-07T13:55:48;-4.70;99.00
44894;DHT22;30625;52.206;21.030;2024-01-07T13:58:14;-4.60;99.20
44894;DHT22;30625;52.206;21.030;2024-01-07T14:00:56;-4.60;98.80
44894;DHT22;30625;52.206;21.030;2024-01-07T14:03:21;-4.60;98.70
44894;DHT22;30625;52.206;21.030;2024-01-07T14:05:47;-4.60;98.80
44894;DHT22;30625;52.206;21.030;2024-01-07T14:08:15;-4.50;99.40
44894;DHT22;30625;52.206;21.030;2024-01-07T14:10:42;-4.50;98.90
44894;DHT22;30625;52.206;21.030;2024-01-07T14:13:08;-4.60;98.70
44894;DHT22;30625;52.206;21.030;2024-01-07T14:15:37;-4.70;99.10
44894;DHT22;30625;52.206;21.030;2024-01-07T14:18:02;-4.60;99.30
44894;DHT22;30625;52.206;21.030;2024-01-07T14:20:28;-4.70;99.20
44894;DHT22;30625;52.206;21.030;2024-01-07T14:22:54;-4.70;99.00
44894;DHT22;30625;52.206;21.030;2024-01-07T14:25:20;-4.60;98.80
44894;DHT22;30625;52.206;21.030;2024-01-07T14:27:46;-4.60;98.80
44894;DHT22;30625;52.206;21.030;2024-01-07T14:30:12;-4.80;98.50
44894;DHT22;30625;52.206;21.030;2024-01-07T14:32:41;-4.70;99.10
44894;DHT22;30625;52.206;21.030;2024-01-07T14:35:08;-4.80;99.60
44894;DHT22;30625;52.206;21.030;2024-01-07T14:37:34;-4.70;99.30
44894;DHT22;30625;52.206;21.030;2024-01-07T14:40:02;-4.80;99.20
44894;DHT22;30625;52.206;21.030;2024-01-07T14:42:29;-4.80;99.30
44894;DHT22;30625;52.206;21.030;2024-01-07T14:44:55;-4.80;99.50
44894;DHT22;30625;52.206;21.030;2024-01-07T14:47:22;-4.80;99.40
44894;DHT22;30625;52.206;21.030;2024-01-07T14:49:48;-4.90;98.90
44894;DHT22;30625;52.206;21.030;2024-01-07T14:52:15;-4.90;99.20
44894;DHT22;30625;52.206;21.030;2024-01-07T14:54:41;-4.90;99.50
44894;DHT22;30625;52.206;21.030;2024-01-07T14:59:43;-5.00;99.10
44894;DHT22;30625;52.206;21.030;2024-01-07T15:02:12;-5.00;98.70
44894;DHT22;30625;52.206;21.030;2024-01-07T15:04:41;-5.10;98.90
44894;DHT22;30625;52.206;21.030;2024-01-07T15:07:07;-5.10;98.30
44894;DHT22;30625;52.206;21.030;2024-01-07T15:09:33;-5.10;98.00
44894;DHT22;30625;52.206;21.030;2024-01-07T15:11:59;-5.10;97.90
44894;DHT22;30625;52.206;21.030;2024-01-07T15:14:25;-5.20;97.80
44894;DHT22;30625;52.206;21.030;2024-01-07T15:16:51;-5.30;97.00
44894;DHT22;30625;52.206;21.030;2024-01-07T15:19:20;-5.40;97.50
44894;DHT22;30625;52.206;21.030;2024-01-07T15:21:47;-5.50;97.70
44894;DHT22;30625;52.206;21.030;2024-01-07T15:24:13;-5.60;97.40
44894;DHT22;30625;52.206;21.030;2024-01-07T15:26:38;-5.60;97.80
44894;DHT22;30625;52.206;21.030;2024-01-07T15:29:04;-5.50;96.80
44894;DHT22;30625;52.206;21.030;2024-01-07T15:31:30;-5.50;97.10
44894;DHT22;30625;52.206;21.030;2024-01-07T15:33:56;-5.60;97.20
44894;DHT22;30625;52.206;21.030;2024-01-07T15:36:21;-5.60;97.20
44894;DHT22;30625;52.206;21.030;2024-01-07T15:38:47;-5.60;97.60
44894;DHT22;30625;52.206;21.030;2024-01-07T15:41:13;-5.60;98.00
44894;DHT22;30625;52.206;21.030;2024-01-07T15:43:40;-5.50;97.60
44894;DHT22;30625;52.206;21.030;2024-01-07T15:46:06;-5.50;97.50
44894;DHT22;30625;52.206;21.030;2024-01-07T15:48:31;-5.40;97.00
44894;DHT22;30625;52.206;21.030;2024-01-07T15:50:58;-5.50;97.00
44894;DHT22;30625;52.206;21.030;2024-01-07T15:53:25;-5.50;96.70
44894;DHT22;30625;52.206;21.030;2024-01-07T15:56:01;-5.50;96.70